Barcelona Aeropuerto

latitud = 41° 17' 34''N | longitud = 002° 04' 12''E
4 metros sobre el nivel del mar | datos mensuales

Fecha, hora, temperatura, viento dirección y velocidad, humedad y presión.

  • 22-11-2017 09:00:00 | 8.10°C | Norte |17.00 km/h | 70.00% | 1017.20 hPa
  • 22-11-2017 08:00:00 | 7.60°C | Norte |17.00 km/h | 70.00% | 1016.90 hPa
  • 22-11-2017 07:00:00 | 7.40°C | Norte |15.00 km/h | 72.00% | 1016.80 hPa
  • 22-11-2017 06:00:00 | 7.90°C | Norte |19.00 km/h | 70.00% | 1016.90 hPa
  • 22-11-2017 05:00:00 | 8.20°C | Norte |15.00 km/h | 70.00% | 1017.20 hPa
  • 22-11-2017 04:00:00 | 8.70°C | Norte |16.00 km/h | 68.00% | 1017.50 hPa
  • 22-11-2017 03:00:00 | 9.00°C | Norte |15.00 km/h | 69.00% | 1018.10 hPa
  • 22-11-2017 02:00:00 | 9.80°C | Norte |17.00 km/h | 65.00% | 1018.20 hPa
  • 22-11-2017 01:00:00 | 10.40°C | Norte |16.00 km/h | 64.00% | 1018.60 hPa
  • 22-11-2017 00:00:00 | 10.90°C | Norte |6.00 km/h | 63.00% | 1019.00 hPa
  • 21-11-2017 23:00:00 | 10.60°C | Norte |3.00 km/h | 69.00% | 1019.10 hPa
  • 21-11-2017 22:00:00 | 10.80°C | Norte |4.00 km/h | 73.00% | 1019.10 hPa
  • 21-11-2017 21:00:00 | 11.00°C | Norte |3.00 km/h | 74.00% | 1019.10 hPa
  • 21-11-2017 20:00:00 | 12.70°C | Norte |6.00 km/h | 70.00% | 1019.20 hPa
  • 21-11-2017 19:00:00 | 14.90°C | Oeste |6.00 km/h | 67.00% | 1019.10 hPa
  • 21-11-2017 18:00:00 | 16.20°C | Sudoeste |8.00 km/h | 62.00% | 1019.00 hPa
  • 21-11-2017 17:00:00 | 17.90°C | Sudoeste |10.00 km/h | 55.00% | 1019.00 hPa
  • 21-11-2017 16:00:00 | 18.90°C | Sudoeste |14.00 km/h | 48.00% | 1019.00 hPa
  • 21-11-2017 15:00:00 | 19.20°C | Sudoeste |14.00 km/h | 43.00% | 1019.00 hPa
  • 21-11-2017 14:00:00 | 18.60°C | Sudoeste |12.00 km/h | 51.00% | 1019.60 hPa
  • 21-11-2017 13:00:00 | 18.90°C | Nordeste |3.00 km/h | 39.00% | 1020.10 hPa
  • 21-11-2017 12:00:00 | 16.70°C | Norte |8.00 km/h | 44.00% | 1020.80 hPa
  • 21-11-2017 11:00:00 | 13.70°C | Norte |15.00 km/h | 51.00% | 1021.20 hPa
  • 21-11-2017 10:00:00 | 10.90°C | Norte |21.00 km/h | 57.00% | 1021.00 hPa